sensor_id;sensor_type;location;lat;lon;timestamp;P1;durP1;ratioP1;P2;durP2;ratioP2
17197;SDS011;8715;51.010;6.812;2023-06-24T00:02:14;883.95;;;825.80;;
17197;SDS011;8715;51.010;6.812;2023-06-24T00:05:52;892.03;;;833.38;;
17197;SDS011;8715;51.010;6.812;2023-06-24T00:09:30;888.88;;;830.58;;
17197;SDS011;8715;51.010;6.812;2023-06-24T00:13:09;882.10;;;824.72;;
17197;SDS011;8715;51.010;6.812;2023-06-24T00:16:05;889.20;;;830.85;;
17197;SDS011;8715;51.010;6.812;2023-06-24T00:19:42;888.92;;;830.80;;
17197;SDS011;8715;51.010;6.812;2023-06-24T00:23:21;894.05;;;835.45;;
17197;SDS011;8715;51.010;6.812;2023-06-24T00:26:59;887.08;;;829.40;;
17197;SDS011;8715;51.010;6.812;2023-06-24T00:30:38;888.50;;;830.20;;
17197;SDS011;8715;51.010;6.812;2023-06-24T00:34:16;884.97;;;827.58;;
17197;SDS011;8715;51.010;6.812;2023-06-24T00:37:54;882.20;;;824.75;;
17197;SDS011;8715;51.010;6.812;2023-06-24T00:41:33;885.40;;;827.45;;
17197;SDS011;8715;51.010;6.812;2023-06-24T00:45:11;884.63;;;827.38;;
17197;SDS011;8715;51.010;6.812;2023-06-24T00:48:51;882.83;;;825.88;;
17197;SDS011;8715;51.010;6.812;2023-06-24T00:52:29;885.00;;;827.53;;
17197;SDS011;8715;51.010;6.812;2023-06-24T00:56:08;881.13;;;824.60;;
17197;SDS011;8715;51.010;6.812;2023-06-24T00:59:47;882.38;;;825.72;;
17197;SDS011;8715;51.010;6.812;2023-06-24T01:03:26;884.92;;;827.47;;
17197;SDS011;8715;51.010;6.812;2023-06-24T01:07:04;879.25;;;822.47;;
17197;SDS011;8715;51.010;6.812;2023-06-24T01:10:42;879.95;;;823.05;;
17197;SDS011;8715;51.010;6.812;2023-06-24T01:14:20;883.05;;;826.08;;
17197;SDS011;8715;51.010;6.812;2023-06-24T01:17:59;887.17;;;830.03;;
17197;SDS011;8715;51.010;6.812;2023-06-24T01:21:42;875.83;;;819.58;;
17197;SDS011;8715;51.010;6.812;2023-06-24T01:25:46;880.75;;;823.88;;
17197;SDS011;8715;51.010;6.812;2023-06-24T01:34:14;875.75;;;819.38;;
17197;SDS011;8715;51.010;6.812;2023-06-24T01:37:54;878.65;;;822.75;;
17197;SDS011;8715;51.010;6.812;2023-06-24T01:41:34;883.00;;;826.70;;
17197;SDS011;8715;51.010;6.812;2023-06-24T01:45:14;878.92;;;822.92;;
17197;SDS011;8715;51.010;6.812;2023-06-24T01:48:54;880.05;;;823.80;;
17197;SDS011;8715;51.010;6.812;2023-06-24T01:51:42;880.47;;;824.38;;
17197;SDS011;8715;51.010;6.812;2023-06-24T01:54:29;880.47;;;823.80;;
17197;SDS011;8715;51.010;6.812;2023-06-24T01:57:15;880.95;;;824.63;;
17197;SDS011;8715;51.010;6.812;2023-06-24T02:00:03;885.67;;;828.83;;
17197;SDS011;8715;51.010;6.812;2023-06-24T02:02:51;878.92;;;822.60;;
17197;SDS011;8715;51.010;6.812;2023-06-24T02:05:37;881.63;;;825.35;;
17197;SDS011;8715;51.010;6.812;2023-06-24T02:08:24;881.88;;;825.25;;
17197;SDS011;8715;51.010;6.812;2023-06-24T02:11:09;888.47;;;830.90;;
17197;SDS011;8715;51.010;6.812;2023-06-24T02:13:55;888.58;;;830.95;;
17197;SDS011;8715;51.010;6.812;2023-06-24T02:16:41;881.72;;;824.53;;
17197;SDS011;8715;51.010;6.812;2023-06-24T02:19:28;881.50;;;824.80;;
17197;SDS011;8715;51.010;6.812;2023-06-24T02:22:16;889.85;;;832.28;;
17197;SDS011;8715;51.010;6.812;2023-06-24T02:25:02;882.95;;;825.90;;
17197;SDS011;8715;51.010;6.812;2023-06-24T02:28:40;877.10;;;820.35;;
17197;SDS011;8715;51.010;6.812;2023-06-24T02:32:18;879.05;;;822.28;;
17197;SDS011;8715;51.010;6.812;2023-06-24T02:35:56;880.80;;;823.83;;
17197;SDS011;8715;51.010;6.812;2023-06-24T02:39:35;876.20;;;819.97;;
17197;SDS011;8715;51.010;6.812;2023-06-24T02:43:13;879.03;;;823.17;;
17197;SDS011;8715;51.010;6.812;2023-06-24T02:46:51;880.20;;;823.72;;
17197;SDS011;8715;51.010;6.812;2023-06-24T02:50:31;878.70;;;822.75;;
17197;SDS011;8715;51.010;6.812;2023-06-24T02:53:28;877.38;;;821.03;;
17197;SDS011;8715;51.010;6.812;2023-06-24T02:57:08;872.22;;;816.78;;
17197;SDS011;8715;51.010;6.812;2023-06-24T03:00:46;877.30;;;820.97;;
17197;SDS011;8715;51.010;6.812;2023-06-24T03:04:28;878.35;;;822.10;;
17197;SDS011;8715;51.010;6.812;2023-06-24T03:08:09;876.80;;;820.38;;
17197;SDS011;8715;51.010;6.812;2023-06-24T03:11:48;879.78;;;823.17;;
17197;SDS011;8715;51.010;6.812;2023-06-24T03:15:27;881.40;;;824.97;;
17197;SDS011;8715;51.010;6.812;2023-06-24T03:19:05;877.22;;;820.65;;
17197;SDS011;8715;51.010;6.812;2023-06-24T03:22:43;876.85;;;820.40;;
17197;SDS011;8715;51.010;6.812;2023-06-24T03:26:21;872.42;;;816.80;;
17197;SDS011;8715;51.010;6.812;2023-06-24T03:30:00;871.33;;;815.58;;
17197;SDS011;8715;51.010;6.812;2023-06-24T03:33:37;877.83;;;821.78;;
17197;SDS011;8715;51.010;6.812;2023-06-24T03:37:15;878.72;;;822.25;;
17197;SDS011;8715;51.010;6.812;2023-06-24T03:40:53;883.97;;;827.03;;
17197;SDS011;8715;51.010;6.812;2023-06-24T03:44:31;881.45;;;824.60;;
17197;SDS011;8715;51.010;6.812;2023-06-24T03:48:10;879.75;;;822.67;;
17197;SDS011;8715;51.010;6.812;2023-06-24T03:51:48;893.25;;;834.70;;
17197;SDS011;8715;51.010;6.812;2023-06-24T03:55:18;887.65;;;829.22;;
17197;SDS011;8715;51.010;6.812;2023-06-24T03:58:56;888.30;;;829.22;;
17197;SDS011;8715;51.010;6.812;2023-06-24T04:02:35;893.47;;;833.83;;
17197;SDS011;8715;51.010;6.812;2023-06-24T04:06:12;899.00;;;838.78;;
17197;SDS011;8715;51.010;6.812;2023-06-24T04:09:50;900.78;;;839.58;;
17197;SDS011;8715;51.010;6.812;2023-06-24T04:13:28;902.45;;;841.00;;
17197;SDS011;8715;51.010;6.812;2023-06-24T04:17:06;907.08;;;844.60;;
17197;SDS011;8715;51.010;6.812;2023-06-24T04:20:45;908.35;;;845.40;;
17197;SDS011;8715;51.010;6.812;2023-06-24T04:24:23;910.55;;;846.35;;
17197;SDS011;8715;51.010;6.812;2023-06-24T04:28:01;915.20;;;850.30;;
17197;SDS011;8715;51.010;6.812;2023-06-24T04:31:39;917.28;;;851.40;;
17197;SDS011;8715;51.010;6.812;2023-06-24T04:35:18;919.47;;;852.90;;
17197;SDS011;8715;51.010;6.812;2023-06-24T04:38:55;925.33;;;857.70;;
17197;SDS011;8715;51.010;6.812;2023-06-24T04:42:33;926.17;;;858.45;;
17197;SDS011;8715;51.010;6.812;2023-06-24T04:46:12;926.97;;;858.03;;
17197;SDS011;8715;51.010;6.812;2023-06-24T04:49:50;939.13;;;868.90;;
17197;SDS011;8715;51.010;6.812;2023-06-24T04:53:29;936.17;;;865.10;;
17197;SDS011;8715;51.010;6.812;2023-06-24T04:57:09;943.95;;;871.72;;
17197;SDS011;8715;51.010;6.812;2023-06-24T05:00:47;944.25;;;871.08;;
17197;SDS011;8715;51.010;6.812;2023-06-24T05:04:25;947.75;;;873.90;;
17197;SDS011;8715;51.010;6.812;2023-06-24T05:08:05;954.17;;;879.53;;
17197;SDS011;8715;51.010;6.812;2023-06-24T05:11:43;949.38;;;874.20;;
17197;SDS011;8715;51.010;6.812;2023-06-24T05:15:20;954.10;;;878.03;;
17197;SDS011;8715;51.010;6.812;2023-06-24T05:18:58;952.63;;;875.75;;
17197;SDS011;8715;51.010;6.812;2023-06-24T05:22:36;957.97;;;880.40;;
17197;SDS011;8715;51.010;6.812;2023-06-24T05:26:15;957.70;;;879.75;;
17197;SDS011;8715;51.010;6.812;2023-06-24T05:29:53;960.28;;;881.88;;
17197;SDS011;8715;51.010;6.812;2023-06-24T05:33:31;962.92;;;883.40;;
17197;SDS011;8715;51.010;6.812;2023-06-24T05:37:09;970.03;;;888.80;;
17197;SDS011;8715;51.010;6.812;2023-06-24T05:40:48;965.25;;;884.42;;
17197;SDS011;8715;51.010;6.812;2023-06-24T05:44:26;968.80;;;887.78;;
17197;SDS011;8715;51.010;6.812;2023-06-24T05:48:04;967.83;;;886.60;;
17197;SDS011;8715;51.010;6.812;2023-06-24T05:50:49;967.78;;;886.38;;
17197;SDS011;8715;51.010;6.812;2023-06-24T05:54:27;973.65;;;891.08;;
17197;SDS011;8715;51.010;6.812;2023-06-24T05:58:06;973.03;;;889.88;;
17197;SDS011;8715;51.010;6.812;2023-06-24T06:01:44;972.17;;;889.08;;
17197;SDS011;8715;51.010;6.812;2023-06-24T06:05:22;976.83;;;893.35;;
17197;SDS011;8715;51.010;6.812;2023-06-24T06:09:00;975.83;;;892.08;;
17197;SDS011;8715;51.010;6.812;2023-06-24T06:12:37;973.92;;;890.53;;
17197;SDS011;8715;51.010;6.812;2023-06-24T06:16:17;973.90;;;890.92;;
17197;SDS011;8715;51.010;6.812;2023-06-24T06:19:54;972.92;;;890.38;;
17197;SDS011;8715;51.010;6.812;2023-06-24T06:23:32;970.67;;;888.40;;
17197;SDS011;8715;51.010;6.812;2023-06-24T06:27:10;970.75;;;888.78;;
17197;SDS011;8715;51.010;6.812;2023-06-24T06:30:50;964.53;;;884.00;;
17197;SDS011;8715;51.010;6.812;2023-06-24T06:34:27;962.65;;;883.30;;
17197;SDS011;8715;51.010;6.812;2023-06-24T06:38:05;956.38;;;878.50;;
17197;SDS011;8715;51.010;6.812;2023-06-24T06:41:43;955.90;;;879.13;;
17197;SDS011;8715;51.010;6.812;2023-06-24T06:45:21;954.30;;;878.38;;
17197;SDS011;8715;51.010;6.812;2023-06-24T06:49:00;947.83;;;873.25;;
17197;SDS011;8715;51.010;6.812;2023-06-24T06:52:38;949.70;;;875.25;;
17197;SDS011;8715;51.010;6.812;2023-06-24T06:56:16;947.90;;;873.90;;
17197;SDS011;8715;51.010;6.812;2023-06-24T06:59:54;945.92;;;872.13;;
17197;SDS011;8715;51.010;6.812;2023-06-24T07:03:33;942.67;;;869.58;;
17197;SDS011;8715;51.010;6.812;2023-06-24T07:07:11;946.72;;;873.60;;
17197;SDS011;8715;51.010;6.812;2023-06-24T07:10:49;940.38;;;867.50;;
17197;SDS011;8715;51.010;6.812;2023-06-24T07:14:28;944.50;;;871.65;;
17197;SDS011;8715;51.010;6.812;2023-06-24T07:18:06;941.20;;;868.67;;
17197;SDS011;8715;51.010;6.812;2023-06-24T07:21:45;944.55;;;871.55;;
17197;SDS011;8715;51.010;6.812;2023-06-24T07:25:23;940.50;;;867.83;;
17197;SDS011;8715;51.010;6.812;2023-06-24T07:29:01;945.15;;;872.40;;
17197;SDS011;8715;51.010;6.812;2023-06-24T07:32:39;941.45;;;869.00;;
17197;SDS011;8715;51.010;6.812;2023-06-24T07:36:18;941.75;;;869.25;;
17197;SDS011;8715;51.010;6.812;2023-06-24T07:39:55;938.90;;;866.65;;
17197;SDS011;8715;51.010;6.812;2023-06-24T07:43:33;943.20;;;870.60;;
17197;SDS011;8715;51.010;6.812;2023-06-24T07:47:11;940.42;;;868.45;;
17197;SDS011;8715;51.010;6.812;2023-06-24T07:50:50;942.05;;;869.63;;
17197;SDS011;8715;51.010;6.812;2023-06-24T07:54:29;940.45;;;868.00;;
17197;SDS011;8715;51.010;6.812;2023-06-24T07:58:07;939.65;;;867.28;;
17197;SDS011;8715;51.010;6.812;2023-06-24T08:01:45;939.83;;;867.60;;
17197;SDS011;8715;51.010;6.812;2023-06-24T08:05:23;935.78;;;863.92;;
17197;SDS011;8715;51.010;6.812;2023-06-24T08:09:02;943.13;;;870.65;;
17197;SDS011;8715;51.010;6.812;2023-06-24T08:12:40;942.95;;;870.20;;
17197;SDS011;8715;51.010;6.812;2023-06-24T08:16:17;946.55;;;873.75;;
17197;SDS011;8715;51.010;6.812;2023-06-24T08:19:55;939.17;;;867.05;;
17197;SDS011;8715;51.010;6.812;2023-06-24T08:23:33;941.72;;;869.42;;
17197;SDS011;8715;51.010;6.812;2023-06-24T08:27:13;943.63;;;870.85;;
17197;SDS011;8715;51.010;6.812;2023-06-24T08:31:08;941.92;;;869.40;;
17197;SDS011;8715;51.010;6.812;2023-06-24T08:34:46;943.15;;;870.55;;
17197;SDS011;8715;51.010;6.812;2023-06-24T08:38:24;938.60;;;866.60;;
17197;SDS011;8715;51.010;6.812;2023-06-24T08:42:03;941.67;;;869.03;;
17197;SDS011;8715;51.010;6.812;2023-06-24T08:45:42;945.75;;;872.70;;
17197;SDS011;8715;51.010;6.812;2023-06-24T08:49:24;945.50;;;872.70;;
17197;SDS011;8715;51.010;6.812;2023-06-24T08:53:04;942.97;;;870.72;;
17197;SDS011;8715;51.010;6.812;2023-06-24T08:56:43;939.33;;;867.28;;
17197;SDS011;8715;51.010;6.812;2023-06-24T09:00:22;944.22;;;871.78;;
17197;SDS011;8715;51.010;6.812;2023-06-24T09:03:59;936.17;;;864.22;;
17197;SDS011;8715;51.010;6.812;2023-06-24T09:07:37;940.08;;;867.55;;
17197;SDS011;8715;51.010;6.812;2023-06-24T09:11:15;941.75;;;869.47;;
17197;SDS011;8715;51.010;6.812;2023-06-24T09:15:00;939.97;;;867.58;;
17197;SDS011;8715;51.010;6.812;2023-06-24T09:18:40;942.88;;;870.63;;
17197;SDS011;8715;51.010;6.812;2023-06-24T09:22:20;937.42;;;865.45;;
17197;SDS011;8715;51.010;6.812;2023-06-24T09:25:57;940.83;;;868.45;;
17197;SDS011;8715;51.010;6.812;2023-06-24T09:29:35;943.75;;;870.97;;
17197;SDS011;8715;51.010;6.812;2023-06-24T09:33:14;946.30;;;872.95;;
17197;SDS011;8715;51.010;6.812;2023-06-24T09:36:53;944.67;;;870.97;;
17197;SDS011;8715;51.010;6.812;2023-06-24T09:40:34;944.40;;;870.80;;
17197;SDS011;8715;51.010;6.812;2023-06-24T09:44:12;944.55;;;871.05;;
17197;SDS011;8715;51.010;6.812;2023-06-24T09:47:51;945.65;;;871.90;;
17197;SDS011;8715;51.010;6.812;2023-06-24T09:51:30;941.05;;;867.72;;
17197;SDS011;8715;51.010;6.812;2023-06-24T09:55:10;944.38;;;870.67;;
17197;SDS011;8715;51.010;6.812;2023-06-24T09:58:50;948.10;;;874.03;;
17197;SDS011;8715;51.010;6.812;2023-06-24T10:02:29;944.65;;;871.22;;
17197;SDS011;8715;51.010;6.812;2023-06-24T10:06:09;947.67;;;873.50;;
17197;SDS011;8715;51.010;6.812;2023-06-24T10:09:47;945.22;;;871.47;;
17197;SDS011;8715;51.010;6.812;2023-06-24T10:13:25;946.65;;;872.95;;
17197;SDS011;8715;51.010;6.812;2023-06-24T10:17:03;945.55;;;871.65;;
17197;SDS011;8715;51.010;6.812;2023-06-24T10:20:48;942.17;;;868.90;;
17197;SDS011;8715;51.010;6.812;2023-06-24T10:24:29;947.03;;;873.10;;
17197;SDS011;8715;51.010;6.812;2023-06-24T10:28:07;947.10;;;872.58;;
17197;SDS011;8715;51.010;6.812;2023-06-24T10:32:05;948.10;;;873.83;;
17197;SDS011;8715;51.010;6.812;2023-06-24T10:35:43;945.38;;;871.17;;
17197;SDS011;8715;51.010;6.812;2023-06-24T10:39:37;948.47;;;874.15;;
17197;SDS011;8715;51.010;6.812;2023-06-24T10:43:25;947.25;;;872.85;;
17197;SDS011;8715;51.010;6.812;2023-06-24T10:47:04;946.50;;;872.25;;
17197;SDS011;8715;51.010;6.812;2023-06-24T10:50:43;943.10;;;869.08;;
17197;SDS011;8715;51.010;6.812;2023-06-24T10:54:22;946.67;;;872.88;;
17197;SDS011;8715;51.010;6.812;2023-06-24T10:58:06;944.22;;;870.88;;
17197;SDS011;8715;51.010;6.812;2023-06-24T11:01:51;949.30;;;875.50;;
17197;SDS011;8715;51.010;6.812;2023-06-24T11:05:30;946.15;;;871.97;;
17197;SDS011;8715;51.010;6.812;2023-06-24T11:09:08;947.97;;;873.10;;
17197;SDS011;8715;51.010;6.812;2023-06-24T11:12:48;948.30;;;873.53;;
17197;SDS011;8715;51.010;6.812;2023-06-24T11:16:26;950.42;;;875.72;;
17197;SDS011;8715;51.010;6.812;2023-06-24T11:20:06;954.75;;;879.08;;
17197;SDS011;8715;51.010;6.812;2023-06-24T11:23:44;952.75;;;877.00;;
17197;SDS011;8715;51.010;6.812;2023-06-24T11:27:25;953.67;;;877.60;;
17197;SDS011;8715;51.010;6.812;2023-06-24T11:31:06;954.75;;;878.72;;
17197;SDS011;8715;51.010;6.812;2023-06-24T11:34:44;950.80;;;875.30;;
17197;SDS011;8715;51.010;6.812;2023-06-24T11:38:21;950.67;;;874.55;;
17197;SDS011;8715;51.010;6.812;2023-06-24T11:42:06;950.20;;;874.70;;
17197;SDS011;8715;51.010;6.812;2023-06-24T11:45:47;953.47;;;878.13;;
17197;SDS011;8715;51.010;6.812;2023-06-24T11:49:25;949.55;;;874.28;;
17197;SDS011;8715;51.010;6.812;2023-06-24T11:53:03;951.42;;;876.17;;
17197;SDS011;8715;51.010;6.812;2023-06-24T11:56:44;953.03;;;877.90;;
17197;SDS011;8715;51.010;6.812;2023-06-24T12:00:35;950.38;;;874.92;;
17197;SDS011;8715;51.010;6.812;2023-06-24T12:04:15;951.08;;;875.55;;
17197;SDS011;8715;51.010;6.812;2023-06-24T12:08:02;949.42;;;874.38;;
17197;SDS011;8715;51.010;6.812;2023-06-24T12:11:40;949.88;;;874.78;;
17197;SDS011;8715;51.010;6.812;2023-06-24T12:15:18;946.97;;;872.30;;
17197;SDS011;8715;51.010;6.812;2023-06-24T12:18:57;947.50;;;872.83;;
17197;SDS011;8715;51.010;6.812;2023-06-24T12:22:35;946.00;;;871.30;;
17197;SDS011;8715;51.010;6.812;2023-06-24T12:26:13;948.15;;;874.05;;
17197;SDS011;8715;51.010;6.812;2023-06-24T12:29:50;943.42;;;869.42;;
17197;SDS011;8715;51.010;6.812;2023-06-24T12:33:30;946.60;;;872.55;;
17197;SDS011;8715;51.010;6.812;2023-06-24T12:37:07;946.25;;;871.92;;
17197;SDS011;8715;51.010;6.812;2023-06-24T12:40:45;949.15;;;874.33;;
17197;SDS011;8715;51.010;6.812;2023-06-24T12:44:23;950.40;;;875.17;;
17197;SDS011;8715;51.010;6.812;2023-06-24T12:48:01;946.38;;;871.65;;
17197;SDS011;8715;51.010;6.812;2023-06-24T12:51:39;944.85;;;870.60;;
17197;SDS011;8715;51.010;6.812;2023-06-24T12:55:18;946.88;;;872.83;;
17197;SDS011;8715;51.010;6.812;2023-06-24T12:58:55;946.63;;;872.50;;
17197;SDS011;8715;51.010;6.812;2023-06-24T13:02:33;947.13;;;872.85;;
17197;SDS011;8715;51.010;6.812;2023-06-24T13:06:13;946.85;;;872.35;;
17197;SDS011;8715;51.010;6.812;2023-06-24T13:09:50;946.72;;;872.42;;
17197;SDS011;8715;51.010;6.812;2023-06-24T13:13:28;947.08;;;872.50;;
17197;SDS011;8715;51.010;6.812;2023-06-24T13:17:09;949.85;;;874.85;;
17197;SDS011;8715;51.010;6.812;2023-06-24T13:20:46;952.67;;;876.83;;
17197;SDS011;8715;51.010;6.812;2023-06-24T13:24:25;957.83;;;881.67;;
17197;SDS011;8715;51.010;6.812;2023-06-24T13:28:03;953.30;;;876.85;;
17197;SDS011;8715;51.010;6.812;2023-06-24T13:31:41;952.00;;;876.03;;
17197;SDS011;8715;51.010;6.812;2023-06-24T13:35:19;953.97;;;877.95;;
17197;SDS011;8715;51.010;6.812;2023-06-24T13:38:58;950.55;;;874.88;;
17197;SDS011;8715;51.010;6.812;2023-06-24T13:42:36;951.35;;;876.03;;
17197;SDS011;8715;51.010;6.812;2023-06-24T13:46:14;950.33;;;874.83;;
17197;SDS011;8715;51.010;6.812;2023-06-24T13:49:52;951.53;;;875.72;;
17197;SDS011;8715;51.010;6.812;2023-06-24T13:53:30;951.22;;;875.35;;
17197;SDS011;8715;51.010;6.812;2023-06-24T13:57:09;955.42;;;879.03;;
17197;SDS011;8715;51.010;6.812;2023-06-24T14:00:47;951.17;;;875.17;;
17197;SDS011;8715;51.010;6.812;2023-06-24T14:04:25;953.95;;;877.75;;
17197;SDS011;8715;51.010;6.812;2023-06-24T14:08:03;951.28;;;875.47;;
17197;SDS011;8715;51.010;6.812;2023-06-24T14:11:42;951.30;;;875.33;;
17197;SDS011;8715;51.010;6.812;2023-06-24T14:15:21;957.40;;;880.65;;
17197;SDS011;8715;51.010;6.812;2023-06-24T14:18:58;951.05;;;874.90;;
17197;SDS011;8715;51.010;6.812;2023-06-24T14:22:36;953.38;;;876.97;;
17197;SDS011;8715;51.010;6.812;2023-06-24T14:26:14;953.50;;;877.22;;
17197;SDS011;8715;51.010;6.812;2023-06-24T14:29:53;953.03;;;876.88;;
17197;SDS011;8715;51.010;6.812;2023-06-24T14:33:31;952.72;;;876.42;;
17197;SDS011;8715;51.010;6.812;2023-06-24T14:37:09;951.42;;;875.50;;
17197;SDS011;8715;51.010;6.812;2023-06-24T14:40:47;954.90;;;878.85;;
17197;SDS011;8715;51.010;6.812;2023-06-24T14:44:26;949.90;;;874.63;;
17197;SDS011;8715;51.010;6.812;2023-06-24T14:48:04;951.38;;;876.22;;
17197;SDS011;8715;51.010;6.812;2023-06-24T14:51:41;951.67;;;876.25;;
17197;SDS011;8715;51.010;6.812;2023-06-24T14:55:19;950.88;;;875.40;;
17197;SDS011;8715;51.010;6.812;2023-06-24T14:58:57;951.33;;;875.40;;
17197;SDS011;8715;51.010;6.812;2023-06-24T15:02:36;948.00;;;872.83;;
17197;SDS011;8715;51.010;6.812;2023-06-24T15:06:14;952.10;;;876.45;;
17197;SDS011;8715;51.010;6.812;2023-06-24T15:09:52;951.20;;;875.60;;
17197;SDS011;8715;51.010;6.812;2023-06-24T15:13:30;950.83;;;875.30;;
17197;SDS011;8715;51.010;6.812;2023-06-24T15:17:10;950.20;;;874.63;;
17197;SDS011;8715;51.010;6.812;2023-06-24T15:20:49;949.83;;;874.38;;
17197;SDS011;8715;51.010;6.812;2023-06-24T15:24:26;947.67;;;872.70;;
17197;SDS011;8715;51.010;6.812;2023-06-24T15:28:04;948.55;;;873.55;;
17197;SDS011;8715;51.010;6.812;2023-06-24T15:31:42;948.22;;;873.67;;
17197;SDS011;8715;51.010;6.812;2023-06-24T15:35:21;948.78;;;874.10;;
17197;SDS011;8715;51.010;6.812;2023-06-24T15:39:00;949.10;;;874.58;;
17197;SDS011;8715;51.010;6.812;2023-06-24T15:42:37;950.05;;;874.95;;
17197;SDS011;8715;51.010;6.812;2023-06-24T15:46:15;946.97;;;872.33;;
17197;SDS011;8715;51.010;6.812;2023-06-24T15:49:55;951.72;;;876.72;;
17197;SDS011;8715;51.010;6.812;2023-06-24T15:53:33;947.05;;;872.05;;
17197;SDS011;8715;51.010;6.812;2023-06-24T15:57:11;951.20;;;875.70;;
17197;SDS011;8715;51.010;6.812;2023-06-24T16:00:48;951.70;;;876.40;;
17197;SDS011;8715;51.010;6.812;2023-06-24T16:04:26;951.17;;;875.72;;
17197;SDS011;8715;51.010;6.812;2023-06-24T16:08:06;950.67;;;875.22;;
17197;SDS011;8715;51.010;6.812;2023-06-24T16:11:44;950.17;;;874.78;;
17197;SDS011;8715;51.010;6.812;2023-06-24T16:15:22;948.88;;;873.80;;
17197;SDS011;8715;51.010;6.812;2023-06-24T16:19:00;951.40;;;876.03;;
17197;SDS011;8715;51.010;6.812;2023-06-24T16:22:39;948.85;;;873.95;;
17197;SDS011;8715;51.010;6.812;2023-06-24T16:26:17;949.78;;;874.78;;
17197;SDS011;8715;51.010;6.812;2023-06-24T16:29:54;949.40;;;874.55;;
17197;SDS011;8715;51.010;6.812;2023-06-24T16:33:32;949.10;;;874.20;;
17197;SDS011;8715;51.010;6.812;2023-06-24T16:37:10;947.75;;;873.28;;
17197;SDS011;8715;51.010;6.812;2023-06-24T16:40:49;951.03;;;876.50;;
17197;SDS011;8715;51.010;6.812;2023-06-24T16:44:27;945.75;;;871.30;;
17197;SDS011;8715;51.010;6.812;2023-06-24T16:48:05;946.75;;;871.97;;
17197;SDS011;8715;51.010;6.812;2023-06-24T16:51:47;947.72;;;873.47;;
17197;SDS011;8715;51.010;6.812;2023-06-24T16:55:26;946.65;;;872.13;;
17197;SDS011;8715;51.010;6.812;2023-06-24T16:59:04;947.67;;;872.90;;
17197;SDS011;8715;51.010;6.812;2023-06-24T17:02:42;948.47;;;873.15;;
17197;SDS011;8715;51.010;6.812;2023-06-24T17:06:20;946.53;;;871.78;;
17197;SDS011;8715;51.010;6.812;2023-06-24T17:09:57;946.80;;;872.17;;
17197;SDS011;8715;51.010;6.812;2023-06-24T17:13:36;949.25;;;874.08;;
17197;SDS011;8715;51.010;6.812;2023-06-24T17:17:14;949.75;;;874.85;;
17197;SDS011;8715;51.010;6.812;2023-06-24T17:20:52;949.67;;;874.92;;
17197;SDS011;8715;51.010;6.812;2023-06-24T17:24:30;946.85;;;872.40;;
17197;SDS011;8715;51.010;6.812;2023-06-24T17:28:09;950.83;;;875.78;;
17197;SDS011;8715;51.010;6.812;2023-06-24T17:31:47;949.13;;;874.38;;
17197;SDS011;8715;51.010;6.812;2023-06-24T17:35:25;948.38;;;873.50;;
17197;SDS011;8715;51.010;6.812;2023-06-24T17:39:03;951.33;;;876.35;;
17197;SDS011;8715;51.010;6.812;2023-06-24T17:42:41;948.33;;;873.35;;
17197;SDS011;8715;51.010;6.812;2023-06-24T17:46:20;948.45;;;873.58;;
17197;SDS011;8715;51.010;6.812;2023-06-24T17:49:58;949.75;;;874.85;;
17197;SDS011;8715;51.010;6.812;2023-06-24T17:53:35;948.35;;;873.67;;
17197;SDS011;8715;51.010;6.812;2023-06-24T17:57:13;949.08;;;874.58;;
17197;SDS011;8715;51.010;6.812;2023-06-24T18:00:53;949.58;;;875.05;;
17197;SDS011;8715;51.010;6.812;2023-06-24T18:04:30;947.58;;;873.00;;
17197;SDS011;8715;51.010;6.812;2023-06-24T18:08:08;949.53;;;875.05;;
17197;SDS011;8715;51.010;6.812;2023-06-24T18:11:46;946.95;;;872.58;;
17197;SDS011;8715;51.010;6.812;2023-06-24T18:15:24;944.83;;;870.55;;
17197;SDS011;8715;51.010;6.812;2023-06-24T18:19:04;945.00;;;870.78;;
17197;SDS011;8715;51.010;6.812;2023-06-24T18:22:42;948.33;;;873.88;;
17197;SDS011;8715;51.010;6.812;2023-06-24T18:26:19;946.40;;;872.17;;
17197;SDS011;8715;51.010;6.812;2023-06-24T18:29:58;945.38;;;871.65;;
17197;SDS011;8715;51.010;6.812;2023-06-24T18:33:37;945.35;;;871.38;;
17197;SDS011;8715;51.010;6.812;2023-06-24T18:37:15;950.47;;;875.88;;
17197;SDS011;8715;51.010;6.812;2023-06-24T18:40:53;948.47;;;873.42;;
17197;SDS011;8715;51.010;6.812;2023-06-24T18:44:31;953.92;;;877.67;;
17197;SDS011;8715;51.010;6.812;2023-06-24T18:48:09;953.75;;;877.08;;
17197;SDS011;8715;51.010;6.812;2023-06-24T18:51:48;957.88;;;880.33;;
17197;SDS011;8715;51.010;6.812;2023-06-24T18:55:26;959.92;;;881.97;;
17197;SDS011;8715;51.010;6.812;2023-06-24T18:59:03;957.92;;;879.92;;
17197;SDS011;8715;51.010;6.812;2023-06-24T19:02:42;964.15;;;885.65;;
17197;SDS011;8715;51.010;6.812;2023-06-24T19:06:21;959.67;;;881.58;;
17197;SDS011;8715;51.010;6.812;2023-06-24T19:09:59;958.13;;;880.53;;
17197;SDS011;8715;51.010;6.812;2023-06-24T19:13:37;957.30;;;879.83;;
17197;SDS011;8715;51.010;6.812;2023-06-24T19:17:14;955.45;;;878.35;;
17197;SDS011;8715;51.010;6.812;2023-06-24T19:20:52;953.03;;;876.67;;
17197;SDS011;8715;51.010;6.812;2023-06-24T19:24:31;950.13;;;874.45;;
17197;SDS011;8715;51.010;6.812;2023-06-24T19:28:09;947.45;;;872.47;;
17197;SDS011;8715;51.010;6.812;2023-06-24T19:31:47;951.03;;;875.53;;
17197;SDS011;8715;51.010;6.812;2023-06-24T19:35:27;951.08;;;875.92;;
17197;SDS011;8715;51.010;6.812;2023-06-24T19:39:06;951.55;;;876.83;;
17197;SDS011;8715;51.010;6.812;2023-06-24T19:42:46;946.33;;;872.10;;
17197;SDS011;8715;51.010;6.812;2023-06-24T19:46:24;945.40;;;871.55;;
17197;SDS011;8715;51.010;6.812;2023-06-24T19:50:02;944.95;;;871.63;;
17197;SDS011;8715;51.010;6.812;2023-06-24T19:53:40;942.40;;;869.95;;
17197;SDS011;8715;51.010;6.812;2023-06-24T19:57:20;942.72;;;870.67;;
17197;SDS011;8715;51.010;6.812;2023-06-24T20:00:57;936.90;;;866.03;;
17197;SDS011;8715;51.010;6.812;2023-06-24T20:04:35;934.28;;;864.08;;
17197;SDS011;8715;51.010;6.812;2023-06-24T20:08:13;937.03;;;866.97;;
17197;SDS011;8715;51.010;6.812;2023-06-24T20:11:52;930.22;;;861.25;;
17197;SDS011;8715;51.010;6.812;2023-06-24T20:15:31;926.83;;;858.47;;
17197;SDS011;8715;51.010;6.812;2023-06-24T20:19:09;926.83;;;858.55;;
17197;SDS011;8715;51.010;6.812;2023-06-24T20:22:46;923.70;;;856.17;;
17197;SDS011;8715;51.010;6.812;2023-06-24T20:26:24;927.33;;;859.90;;
17197;SDS011;8715;51.010;6.812;2023-06-24T20:30:04;921.58;;;854.80;;
17197;SDS011;8715;51.010;6.812;2023-06-24T20:33:46;924.17;;;857.53;;
17197;SDS011;8715;51.010;6.812;2023-06-24T20:37:24;918.67;;;852.58;;
17197;SDS011;8715;51.010;6.812;2023-06-24T20:41:02;922.65;;;856.10;;
17197;SDS011;8715;51.010;6.812;2023-06-24T20:44:42;919.65;;;853.80;;
17197;SDS011;8715;51.010;6.812;2023-06-24T20:48:20;919.30;;;854.00;;
17197;SDS011;8715;51.010;6.812;2023-06-24T20:51:59;913.38;;;848.55;;